インディアナポリス の空港の天気 - METARとTAF

インディアナポリス国際空港 ( KIND / IND ) - アメリカ インディアナ州インディアナポリス
飛行場実況気象(Metar)
観測時間01/16 13:54 EST (01/16 18:54 UTC)
風向・風速北 3m/s
視程10km以上
天気現象
少しの雲 雲底高度 7620m
気温1.7℃
湿度52%
気圧1010hPa
METARKIND 161854Z 01005KT 10SM FEW250 02/M07 A2980 RMK AO2 SLP100 T00171072
過去の天気等 Google飛行場航空写真 Wunderground天気予報

過去48時間のMETAR

飛行場予報(TAF)
発表時間: 1/16 12:20 EST (1/16 17:20 UTC)
予報対象時間: 16日13時 EST ~ 17日19時 EST
風向・風速北 3m/s
視程10km以上
少しの雲 雲底高度 7620m
17日4時 EST から
風向・風速西北西 5m/s
視程8050m
天気現象弱い雪
全天の8割程度の雲 雲底高度 730m
17日9時 EST から
風向・風速西北西 6m/s
視程10km以上
全天の8割程度の雲 雲底高度 610m
17日13時 EST から
風向・風速西北西 7m/s
視程10km以上
全天の4割程度の雲 雲底高度 1830m
KIND 161720Z 1618/1724 01006KT P6SM FEW250
FM170900 30010KT 5SM -SN BKN024
FM171400 30011KT P6SM BKN020
FM171800 30014KT P6SM SCT060